Time;durP1;ratioP1;P1;durP2;ratioP2;P2;SDS_P1;SDS_P2;PMS_P1;PMS_P2;Temp;Humidity;BMP_temperature;BMP_pressure;BME280_temperature;BME280_humidity;BME280_pressure;Samples;Min_cycle;Max_cycle;Signal;HPM_P1;HPM_P2
2021/03/01 00:00:34;;;;;;;1999.90;999.90;;;6.40;99.90;;;;;;5054709;28;20410;-69
2021/03/01 00:03:00;;;;;;;1999.90;999.90;;;6.40;99.90;;;;;;5054751;28;20202;-69
2021/03/01 00:05:26;;;;;;;1999.90;999.90;;;6.40;99.90;;;;;;5054376;28;20564;-70
2021/03/01 00:07:51;;;;;;;1999.90;999.90;;;6.30;99.90;;;;;;5054637;28;20254;-70
2021/03/01 00:10:18;;;;;;;1999.90;999.90;;;6.20;99.90;;;;;;5054610;28;20176;-69
2021/03/01 00:12:44;;;;;;;1999.90;999.90;;;6.30;99.90;;;;;;5054461;28;20714;-70
2021/03/01 00:15:15;;;;;;;1999.90;999.90;;;6.10;99.90;;;;;;5054277;28;20492;-70
2021/03/01 00:17:40;;;;;;;1999.90;999.90;;;6.00;99.90;;;;;;5054493;28;20497;-69
2021/03/01 00:20:08;;;;;;;1999.90;999.90;;;6.00;99.90;;;;;;5054473;28;20985;-70
2021/03/01 00:22:34;;;;;;;1999.90;999.90;;;6.00;99.90;;;;;;5054238;28;20179;-70
2021/03/01 00:25:00;;;;;;;1999.90;999.90;;;6.00;99.90;;;;;;5054060;28;20449;-69
2021/03/01 00:27:26;;;;;;;1999.90;999.90;;;5.90;99.90;;;;;;5054483;28;20806;-70
2021/03/01 00:29:51;;;;;;;1999.90;999.90;;;5.90;99.90;;;;;;5054371;28;20250;-69
2021/03/01 00:32:17;;;;;;;1999.90;999.90;;;5.70;99.90;;;;;;5054317;28;20189;-70
2021/03/01 00:34:43;;;;;;;1999.90;999.90;;;5.70;99.90;;;;;;5053831;28;20276;-69
2021/03/01 00:37:08;;;;;;;1999.90;999.90;;;5.70;99.90;;;;;;5053986;28;20172;-69
2021/03/01 00:39:34;;;;;;;1999.90;999.90;;;5.50;99.90;;;;;;5053442;28;20643;-70
2021/03/01 00:42:00;;;;;;;1999.90;999.90;;;5.60;99.90;;;;;;5054034;28;20281;-69
2021/03/01 00:44:26;;;;;;;1999.90;999.90;;;5.60;99.90;;;;;;5053889;28;20209;-70
2021/03/01 00:46:51;;;;;;;1999.90;999.90;;;5.50;99.90;;;;;;5053760;28;20493;-70
2021/03/01 00:49:17;;;;;;;1999.90;999.90;;;5.50;99.90;;;;;;5053953;28;20424;-69
2021/03/01 00:51:42;;;;;;;1999.90;999.90;;;5.60;99.90;;;;;;5053875;28;20196;-69
2021/03/01 00:54:08;;;;;;;1999.90;999.90;;;5.60;99.90;;;;;;5053694;28;20223;-69
2021/03/01 00:56:34;;;;;;;1999.90;999.90;;;5.60;99.90;;;;;;5053512;28;20251;-69
2021/03/01 00:58:59;;;;;;;1999.90;999.90;;;5.40;99.90;;;;;;5053809;28;20167;-70
2021/03/01 01:01:25;;;;;;;1999.90;999.90;;;5.30;99.90;;;;;;5053703;28;20684;-69
2021/03/01 01:03:50;;;;;;;1999.90;999.90;;;5.20;99.90;;;;;;5053522;28;20271;-69
2021/03/01 01:06:16;;;;;;;1999.90;999.90;;;5.20;99.90;;;;;;5053223;28;20219;-69
2021/03/01 01:08:42;;;;;;;1999.90;999.90;;;5.20;99.90;;;;;;5053515;28;20171;-70
2021/03/01 01:11:07;;;;;;;1999.90;999.90;;;5.20;99.90;;;;;;5053509;28;20202;-70
2021/03/01 01:13:33;;;;;;;1999.90;999.90;;;5.10;99.90;;;;;;5053302;28;20195;-70
2021/03/01 01:15:59;;;;;;;1999.90;999.90;;;5.00;99.90;;;;;;5053126;28;20691;-70
2021/03/01 01:18:25;;;;;;;1999.90;999.90;;;5.00;99.90;;;;;;5053404;28;20176;-70
2021/03/01 01:20:52;;;;;;;1999.90;999.90;;;5.00;99.90;;;;;;5053336;28;20410;-70
2021/03/01 01:23:17;;;;;;;1999.90;999.90;;;4.90;99.90;;;;;;5053153;28;20468;-70
2021/03/01 01:25:43;;;;;;;1999.90;999.90;;;4.90;99.90;;;;;;5052804;28;20550;-70
2021/03/01 01:28:09;;;;;;;1999.90;999.90;;;4.90;99.90;;;;;;5053290;28;20254;-70
2021/03/01 01:30:34;;;;;;;1999.90;999.90;;;4.90;99.90;;;;;;5053146;28;20168;-70
2021/03/01 01:33:00;;;;;;;1999.90;999.90;;;5.00;99.90;;;;;;5052855;28;20187;-69
2021/03/01 01:35:25;;;;;;;1999.90;999.90;;;4.90;99.90;;;;;;5052816;28;20168;-69
2021/03/01 01:37:51;;;;;;;1999.90;999.90;;;4.80;99.90;;;;;;5052921;28;20187;-69
2021/03/01 01:40:20;;;;;;;1999.90;999.90;;;4.70;99.90;;;;;;5052937;28;20175;-69
2021/03/01 01:42:46;;;;;;;1999.90;999.90;;;4.60;99.90;;;;;;5052599;28;20179;-70
2021/03/01 01:45:14;;;;;;;1999.90;999.90;;;4.70;99.90;;;;;;5052558;28;20452;-69
2021/03/01 01:47:42;;;;;;;1999.90;999.90;;;4.60;99.90;;;;;;5052754;28;20418;-69
2021/03/01 01:50:08;;;;;;;1999.90;999.90;;;4.60;99.90;;;;;;5051733;28;20452;-69
2021/03/01 01:52:34;;;;;;;1999.90;999.90;;;4.50;99.90;;;;;;5052855;28;20407;-70
2021/03/01 01:55:02;;;;;;;1999.90;999.90;;;4.50;99.90;;;;;;5052297;28;20472;-69
2021/03/01 01:57:28;;;;;;;1999.90;999.90;;;4.50;99.90;;;;;;5052521;28;20805;-69
2021/03/01 01:59:54;;;;;;;1999.90;999.90;;;4.40;99.90;;;;;;5052563;28;20463;-69
2021/03/01 02:02:20;;;;;;;1999.90;999.90;;;4.40;99.90;;;;;;5052582;28;20254;-69
2021/03/01 02:04:51;;;;;;;1999.90;999.90;;;4.40;99.90;;;;;;5051981;28;20450;-69
2021/03/01 02:07:28;;;;;;;1999.90;999.90;;;4.30;99.90;;;;;;5052434;28;20434;-69
2021/03/01 02:10:07;;;;;;;1999.90;999.90;;;4.30;99.90;;;;;;5052364;28;20577;-69
2021/03/01 02:12:48;;;;;;;1999.90;999.90;;;4.40;99.90;;;;;;5052286;28;20915;-69
2021/03/01 02:15:44;;;;;;;1999.90;999.90;;;4.40;99.90;;;;;;5051885;28;20456;-69
2021/03/01 02:18:09;;;;;;;1999.90;999.90;;;4.40;99.90;;;;;;5052220;28;20410;-69
2021/03/01 02:20:41;;;;;;;1999.90;999.90;;;4.40;99.90;;;;;;5052203;28;20397;-69
2021/03/01 02:23:10;;;;;;;1999.90;999.90;;;4.30;99.90;;;;;;5052116;28;20414;-70
2021/03/01 02:25:37;;;;;;;1999.90;999.90;;;4.30;99.90;;;;;;5051732;28;20449;-69
2021/03/01 02:28:07;;;;;;;1999.90;999.90;;;4.40;99.90;;;;;;5052027;28;20413;-70
2021/03/01 02:30:48;;;;;;;1999.90;999.90;;;4.30;99.90;;;;;;5052160;28;20752;-69
2021/03/01 02:33:18;;;;;;;1999.90;999.90;;;4.20;99.90;;;;;;5051889;28;20438;-70
2021/03/01 02:35:51;;;;;;;1999.90;999.90;;;4.00;99.90;;;;;;5051701;28;20172;-69
2021/03/01 02:38:22;;;;;;;1999.90;999.90;;;3.80;99.90;;;;;;5051975;28;20451;-70
2021/03/01 02:40:50;;;;;;;1999.90;999.90;;;3.70;99.90;;;;;;5051902;28;20414;-69
2021/03/01 02:43:17;;;;;;;1999.90;999.90;;;3.70;99.90;;;;;;5052028;28;20429;-69
2021/03/01 02:45:45;;;;;;;1999.90;999.90;;;3.70;99.90;;;;;;5051513;28;20886;-69
2021/03/01 02:48:12;;;;;;;1999.90;999.90;;;3.70;99.90;;;;;;5051785;28;20417;-69
2021/03/01 02:50:39;;;;;;;1999.90;999.90;;;3.70;99.90;;;;;;5051757;28;20199;-69
2021/03/01 02:53:05;;;;;;;1999.90;999.90;;;3.70;99.90;;;;;;5051635;28;20422;-69
2021/03/01 02:55:31;;;;;;;1999.90;999.90;;;3.70;99.90;;;;;;5051462;28;20798;-69
2021/03/01 02:57:58;;;;;;;1999.90;999.90;;;3.70;99.90;;;;;;5051838;28;20540;-69
2021/03/01 03:00:24;;;;;;;1999.90;999.90;;;3.80;99.90;;;;;;5051643;28;20174;-69
2021/03/01 03:02:51;;;;;;;1999.90;999.90;;;3.80;99.90;;;;;;5055222;28;20168;-70
2021/03/01 03:05:18;;;;;;;1999.90;999.90;;;3.80;99.90;;;;;;5055422;28;20282;-69
2021/03/01 03:07:48;;;;;;;1999.90;999.90;;;3.90;99.90;;;;;;5055707;28;20187;-69
2021/03/01 03:10:16;;;;;;;1999.90;999.90;;;3.90;99.90;;;;;;5055903;28;20448;-69
2021/03/01 03:12:43;;;;;;;1999.90;999.90;;;3.90;99.90;;;;;;5055598;28;20179;-70
2021/03/01 03:15:14;;;;;;;1999.90;999.90;;;3.90;99.90;;;;;;5055314;28;20700;-69
2021/03/01 03:17:40;;;;;;;1999.90;999.90;;;3.90;99.90;;;;;;5055565;28;20426;-69
2021/03/01 03:20:07;;;;;;;1999.90;999.90;;;3.90;99.90;;;;;;5055512;28;20402;-69
2021/03/01 03:22:34;;;;;;;1999.90;999.90;;;3.90;99.90;;;;;;5055575;28;20410;-69
2021/03/01 03:25:01;;;;;;;1999.90;999.90;;;4.00;99.90;;;;;;5055007;28;20296;-69
2021/03/01 03:27:26;;;;;;;1999.90;999.90;;;3.90;99.90;;;;;;5055426;28;20406;-70
2021/03/01 03:29:52;;;;;;;1999.90;999.90;;;3.90;99.90;;;;;;5055406;28;20176;-70
2021/03/01 03:32:18;;;;;;;1999.90;999.90;;;3.90;99.90;;;;;;5055330;28;20509;-69
2021/03/01 03:34:44;;;;;;;1999.90;999.90;;;3.90;99.90;;;;;;5055037;28;20812;-69
2021/03/01 03:37:17;;;;;;;1999.90;999.90;;;3.90;99.90;;;;;;5055149;28;20254;-69
2021/03/01 03:39:46;;;;;;;1999.90;999.90;;;3.90;99.90;;;;;;5055209;28;20406;-69
2021/03/01 03:42:23;;;;;;;1999.90;999.90;;;3.80;99.90;;;;;;5055202;28;20409;-70
2021/03/01 03:44:52;;;;;;;1999.90;999.90;;;3.70;99.90;;;;;;5054641;28;20453;-69
2021/03/01 03:47:18;;;;;;;1999.90;999.90;;;3.80;99.90;;;;;;5055092;28;20463;-70
2021/03/01 03:49:45;;;;;;;1999.90;999.90;;;3.80;99.90;;;;;;5055081;28;20535;-70
2021/03/01 03:52:14;;;;;;;1999.90;999.90;;;3.80;99.90;;;;;;5055028;28;20172;-70
2021/03/01 03:54:43;;;;;;;1999.90;999.90;;;3.80;99.90;;;;;;5054737;28;20508;-70
2021/03/01 03:57:14;;;;;;;1999.90;999.90;;;3.70;99.90;;;;;;5054728;28;20398;-70
2021/03/01 03:59:41;;;;;;;1999.90;999.90;;;3.70;99.90;;;;;;5055139;28;20547;-70
2021/03/01 04:02:10;;;;;;;1999.90;999.90;;;3.70;99.90;;;;;;5054777;28;20508;-69
2021/03/01 04:04:37;;;;;;;1999.90;999.90;;;3.70;99.90;;;;;;5054560;28;20196;-69
2021/03/01 04:07:05;;;;;;;1999.90;999.90;;;3.70;99.90;;;;;;5054320;28;20693;-69
2021/03/01 04:09:33;;;;;;;1999.90;999.90;;;3.70;99.90;;;;;;5054575;28;20398;-70
2021/03/01 04:12:01;;;;;;;1999.90;999.90;;;3.60;99.90;;;;;;5054500;28;20175;-69
2021/03/01 04:14:29;;;;;;;1999.90;999.90;;;3.70;99.90;;;;;;5053377;28;20418;-69
2021/03/01 04:16:57;;;;;;;1999.90;999.90;;;3.70;99.90;;;;;;5054323;28;20927;-70
2021/03/01 04:19:25;;;;;;;1999.90;999.90;;;3.60;99.90;;;;;;5054450;28;20915;-69
2021/03/01 04:21:54;;;;;;;1999.90;999.90;;;3.60;99.90;;;;;;5054427;28;20414;-69
2021/03/01 04:24:20;;;;;;;1999.90;999.90;;;3.50;99.90;;;;;;5054136;28;20626;-69
2021/03/01 04:26:48;;;;;;;1999.90;999.90;;;3.50;99.90;;;;;;5054038;28;20500;-70
2021/03/01 04:29:14;;;;;;;1999.90;999.90;;;3.50;99.90;;;;;;5054245;28;20171;-70
2021/03/01 04:31:42;;;;;;;1999.90;999.90;;;3.50;99.90;;;;;;5054305;28;20164;-70
2021/03/01 04:34:08;;;;;;;1999.90;999.90;;;3.50;99.90;;;;;;5105919;22;20481;-68
2021/03/01 04:36:35;;;;;;;1999.90;999.90;;;3.50;99.90;;;;;;5073899;28;20159;-68
2021/03/01 04:39:01;;;;;;;1999.90;999.90;;;3.50;99.90;;;;;;5074018;28;20160;-68
2021/03/01 04:41:27;;;;;;;1999.90;999.90;;;3.40;99.90;;;;;;5074166;28;20178;-68
2021/03/01 04:43:54;;;;;;;1999.90;999.90;;;3.40;99.90;;;;;;5074023;28;20175;-67
2021/03/01 04:46:20;;;;;;;1999.90;999.90;;;3.40;99.90;;;;;;5073671;28;20195;-67
2021/03/01 04:48:47;;;;;;;1999.90;999.90;;;3.30;99.90;;;;;;5074055;28;20172;-67
2021/03/01 04:51:13;;;;;;;1999.90;999.90;;;3.30;99.90;;;;;;5074069;28;20412;-67
2021/03/01 04:53:40;;;;;;;1999.90;999.90;;;3.30;99.90;;;;;;5073741;28;20670;-67
2021/03/01 04:56:07;;;;;;;1999.90;999.90;;;3.30;99.90;;;;;;5073534;28;20637;-67
2021/03/01 04:58:40;;;;;;;1999.90;999.90;;;3.30;99.90;;;;;;5073864;28;20175;-67
2021/03/01 05:01:07;;;;;;;1999.90;999.90;;;3.30;99.90;;;;;;5073793;28;20397;-67
2021/03/01 05:03:34;;;;;;;1999.90;999.90;;;3.20;99.90;;;;;;5073688;28;20241;-67
2021/03/01 05:06:01;;;;;;;1999.90;999.90;;;3.20;99.90;;;;;;5073262;28;20194;-67
2021/03/01 05:08:28;;;;;;;1999.90;999.90;;;3.30;99.90;;;;;;5073553;28;20171;-67
2021/03/01 05:10:57;;;;;;;1999.90;999.90;;;3.20;99.90;;;;;;5073578;28;20174;-67
2021/03/01 05:13:24;;;;;;;1999.90;999.90;;;3.20;99.90;;;;;;5073326;28;20182;-67
2021/03/01 05:15:50;;;;;;;1999.90;999.90;;;3.10;99.90;;;;;;5073126;28;20584;-67
2021/03/01 05:18:15;;;;;;;1999.90;999.90;;;3.20;99.90;;;;;;5073319;28;20167;-69
2021/03/01 05:20:41;;;;;;;1999.90;999.90;;;3.10;99.90;;;;;;5073283;28;20178;-70
2021/03/01 05:23:07;;;;;;;1999.90;999.90;;;3.10;99.90;;;;;;5073191;28;20634;-69
2021/03/01 05:25:32;;;;;;;1999.90;999.90;;;3.10;99.90;;;;;;5072783;28;20202;-69
2021/03/01 05:27:59;;;;;;;1999.90;999.90;;;3.10;99.90;;;;;;5073175;28;20220;-70
2021/03/01 05:30:25;;;;;;;1999.90;999.90;;;3.10;99.90;;;;;;5073090;28;20175;-70
2021/03/01 05:32:50;;;;;;;1999.90;999.90;;;3.00;99.90;;;;;;5073070;28;20174;-70
2021/03/01 05:35:16;;;;;;;1999.90;999.90;;;3.00;99.90;;;;;;5072567;28;20202;-70
2021/03/01 05:37:42;;;;;;;1999.90;999.90;;;3.10;99.90;;;;;;5072951;28;20514;-69
2021/03/01 05:40:08;;;;;;;1999.90;999.90;;;3.10;99.90;;;;;;5072912;28;20216;-69
2021/03/01 05:42:35;;;;;;;1999.90;999.90;;;3.00;99.90;;;;;;5072900;28;20760;-69
2021/03/01 05:45:03;;;;;;;1999.90;999.90;;;3.00;99.90;;;;;;5072442;28;20456;-69
2021/03/01 05:47:31;;;;;;;1999.90;999.90;;;3.00;99.90;;;;;;5072644;28;20253;-69
2021/03/01 05:49:59;;;;;;;1999.90;999.90;;;3.00;99.90;;;;;;5072543;28;20162;-69
2021/03/01 05:52:28;;;;;;;1999.90;999.90;;;2.90;99.90;;;;;;5072612;28;20170;-69
2021/03/01 05:54:54;;;;;;;1999.90;999.90;;;2.90;99.90;;;;;;5072269;28;20194;-69
2021/03/01 05:57:23;;;;;;;1999.90;999.90;;;2.90;99.90;;;;;;5072584;28;20171;-69
2021/03/01 05:59:48;;;;;;;1999.90;999.90;;;2.90;99.90;;;;;;5072612;28;20205;-69
2021/03/01 06:02:17;;;;;;;1999.90;999.90;;;2.80;99.90;;;;;;5072522;28;20203;-69
2021/03/01 06:04:43;;;;;;;1999.90;999.90;;;2.80;99.90;;;;;;5072288;28;20453;-69
2021/03/01 06:07:09;;;;;;;1999.90;999.90;;;2.80;99.90;;;;;;5072251;28;20167;-69
2021/03/01 06:09:35;;;;;;;1999.90;999.90;;;2.80;99.90;;;;;;5072367;28;20240;-69
2021/03/01 06:12:00;;;;;;;1999.90;999.90;;;2.80;99.90;;;;;;5072367;28;20401;-69
2021/03/01 06:14:26;;;;;;;1999.90;999.90;;;2.80;99.90;;;;;;5072199;28;20182;-69
2021/03/01 06:17:14;;;;;;;1999.90;999.90;;;2.80;99.90;;;;;;5071975;28;20216;-69
2021/03/01 06:19:54;;;;;;;1999.90;999.90;;;2.80;99.90;;;;;;5072284;28;20159;-69
2021/03/01 06:22:37;;;;;;;1999.90;999.90;;;2.80;99.90;;;;;;5072133;28;20241;-69
2021/03/01 06:25:08;;;;;;;1999.90;999.90;;;2.80;99.90;;;;;;5071786;28;20194;-69
2021/03/01 06:27:52;;;;;;;1999.90;999.90;;;2.70;99.90;;;;;;5072105;28;20171;-69
2021/03/01 06:30:37;;;;;;;1999.90;999.90;;;2.70;99.90;;;;;;5072141;28;20159;-70
2021/03/01 06:33:03;;;;;;;1999.90;999.90;;;2.70;99.90;;;;;;5072129;28;20191;-69
2021/03/01 06:35:31;;;;;;;1999.90;999.90;;;2.70;99.90;;;;;;5071236;28;20230;-69
2021/03/01 06:38:24;;;;;;;1999.90;999.90;;;2.80;99.90;;;;;;5072260;28;20245;-69
2021/03/01 06:41:08;;;;;;;1999.90;999.90;;;2.80;99.90;;;;;;5072060;28;20163;-69
2021/03/01 06:43:34;;;;;;;1999.90;999.90;;;2.80;99.90;;;;;;5071847;28;20199;-69
2021/03/01 06:46:07;;;;;;;1999.90;999.90;;;2.90;99.90;;;;;;5071483;28;20248;-69
2021/03/01 06:48:32;;;;;;;1999.90;999.90;;;2.80;99.90;;;;;;5071907;28;20163;-69
2021/03/01 06:50:58;;;;;;;1999.90;999.90;;;2.80;99.90;;;;;;5071880;28;20540;-69
2021/03/01 06:53:24;;;;;;;1999.90;999.90;;;2.80;99.90;;;;;;5071752;28;20297;-69
2021/03/01 06:56:06;;;;;;;1999.90;999.90;;;2.80;99.90;;;;;;5071552;28;20221;-69
2021/03/01 06:58:40;;;;;;;1999.90;999.90;;;2.80;99.90;;;;;;5071756;28;20174;-69
2021/03/01 07:01:14;;;;;;;1999.90;999.90;;;2.90;99.90;;;;;;5071552;28;20258;-69
2021/03/01 07:03:42;;;;;;;1999.90;999.90;;;2.90;99.90;;;;;;5071737;28;20269;-69
2021/03/01 07:06:08;;;;;;;1999.90;999.90;;;2.90;99.90;;;;;;5071357;28;20216;-69
2021/03/01 07:08:49;;;;;;;1999.90;999.90;;;3.00;99.90;;;;;;5071757;28;20549;-69
2021/03/01 07:11:35;;;;;;;1999.90;999.90;;;3.00;99.90;;;;;;5071720;28;20155;-69
2021/03/01 07:14:08;;;;;;;1999.90;999.90;;;3.10;99.90;;;;;;5071584;28;20189;-69
2021/03/01 07:16:38;;;;;;;1999.90;999.90;;;3.10;99.90;;;;;;5071353;28;20166;-69
2021/03/01 07:19:05;;;;;;;1999.90;999.90;;;3.10;99.90;;;;;;5071601;28;20653;-69
2021/03/01 07:21:32;;;;;;;1999.90;999.90;;;3.20;99.90;;;;;;5071465;28;20175;-69
2021/03/01 07:23:59;;;;;;;1999.90;999.90;;;3.20;99.90;;;;;;5071453;28;20187;-69
2021/03/01 07:26:28;;;;;;;1999.90;999.90;;;3.30;99.90;;;;;;5071088;28;20206;-69
2021/03/01 07:29:00;;;;;;;1999.90;999.90;;;3.30;99.90;;;;;;5071537;28;20167;-69
2021/03/01 07:31:26;;;;;;;1999.90;999.90;;;3.30;99.90;;;;;;5071482;28;20398;-69
2021/03/01 07:33:53;;;;;;;1999.90;999.90;;;3.30;99.90;;;;;;5071262;28;20199;-69
2021/03/01 07:36:19;;;;;;;1999.90;999.90;;;3.40;99.90;;;;;;5071096;28;20642;-69
2021/03/01 07:38:45;;;;;;;1999.90;999.90;;;3.40;99.90;;;;;;5071403;28;20269;-69
2021/03/01 07:41:11;;;;;;;1999.90;999.90;;;3.40;99.90;;;;;;5071372;28;20221;-69
2021/03/01 07:43:40;;;;;;;1999.90;999.90;;;3.50;99.90;;;;;;5071261;28;20190;-69
2021/03/01 07:46:07;;;;;;;1999.90;999.90;;;3.60;99.90;;;;;;5070987;28;20775;-69
2021/03/01 07:48:41;;;;;;;1999.90;999.90;;;3.60;99.90;;;;;;5074064;28;20175;-69
2021/03/01 07:51:07;;;;;;;1999.90;999.90;;;3.70;99.90;;;;;;5075040;28;20165;-69
2021/03/01 07:53:52;;;;;;;1999.90;999.90;;;3.80;99.90;;;;;;5074929;28;20191;-70
2021/03/01 07:56:24;;;;;;;1999.90;999.90;;;3.80;99.90;;;;;;5074680;28;20171;-70
2021/03/01 07:58:59;;;;;;;1999.90;999.90;;;3.90;99.90;;;;;;5074580;28;20405;-70
2021/03/01 08:01:26;;;;;;;1999.90;999.90;;;3.90;99.90;;;;;;5074321;28;20166;-69
2021/03/01 08:03:52;;;;;;;1999.90;999.90;;;4.00;99.90;;;;;;5074623;28;20424;-69
2021/03/01 08:06:18;;;;;;;1999.90;999.90;;;4.10;99.90;;;;;;5074324;28;20225;-69
2021/03/01 08:08:45;;;;;;;1999.90;999.90;;;4.10;99.90;;;;;;5074701;28;20916;-69
2021/03/01 08:11:12;;;;;;;1999.90;999.90;;;4.20;99.90;;;;;;5074667;28;20217;-69
2021/03/01 08:13:38;;;;;;;1999.90;999.90;;;4.40;99.90;;;;;;5074435;28;20183;-69
2021/03/01 08:16:20;;;;;;;1999.90;999.90;;;4.40;99.90;;;;;;5074272;28;20425;-69
2021/03/01 08:18:58;;;;;;;1999.90;999.90;;;4.50;99.90;;;;;;5074324;28;20660;-69
2021/03/01 08:21:27;;;;;;;1999.90;999.90;;;4.60;99.90;;;;;;5074351;28;20408;-69
2021/03/01 08:23:53;;;;;;;1999.90;999.90;;;4.60;99.90;;;;;;5074274;28;20429;-70
2021/03/01 08:26:30;;;;;;;1999.90;999.90;;;4.70;99.90;;;;;;5073986;28;20498;-69
2021/03/01 08:29:13;;;;;;;1999.90;999.90;;;4.80;99.90;;;;;;5074285;28;20401;-69
2021/03/01 08:31:39;;;;;;;1999.90;999.90;;;4.90;99.90;;;;;;5074389;28;20390;-69
2021/03/01 08:34:27;;;;;;;1999.90;999.90;;;4.90;99.90;;;;;;5074051;28;20524;-69
2021/03/01 08:36:54;;;;;;;1999.90;999.90;;;5.00;99.90;;;;;;5074237;28;20946;-69
2021/03/01 08:39:51;;;;;;;1999.90;999.90;;;5.00;99.90;;;;;;5074172;28;20409;-70
2021/03/01 08:42:50;;;;;;;1999.90;999.90;;;5.20;99.90;;;;;;5074160;28;20447;-69
2021/03/01 08:45:24;;;;;;;1999.90;999.90;;;5.20;99.90;;;;;;5070162;28;20460;-70
2021/03/01 08:47:53;;;;;;;1999.90;999.90;;;5.30;99.90;;;;;;5074062;28;20416;-69
2021/03/01 08:50:25;;;;;;;1999.90;999.90;;;5.40;99.90;;;;;;5073946;28;20402;-69
2021/03/01 08:52:51;;;;;;;1999.90;999.90;;;5.50;99.90;;;;;;5073967;28;20801;-69
2021/03/01 08:55:18;;;;;;;1999.90;999.90;;;5.60;99.90;;;;;;5073417;28;20427;-69
2021/03/01 08:58:01;;;;;;;1999.90;999.90;;;5.70;99.90;;;;;;5073805;28;20406;-69
2021/03/01 09:00:28;;;;;;;1999.90;999.90;;;5.80;99.90;;;;;;5073251;28;20475;-69
2021/03/01 09:03:13;;;;;;;1999.90;999.90;;;5.80;99.90;;;;;;5073740;28;20409;-70
2021/03/01 09:05:41;;;;;;;1999.90;999.90;;;5.90;99.90;;;;;;5071221;28;20796;-68
2021/03/01 09:08:08;;;;;;;1999.90;999.90;;;6.10;99.90;;;;;;5072780;28;20394;-69
2021/03/01 09:10:45;;;;;;;1999.90;999.90;;;6.20;99.90;;;;;;5072937;28;20401;-69
2021/03/01 09:13:17;;;;;;;1999.90;999.90;;;6.30;99.90;;;;;;5073122;28;20755;-69
2021/03/01 09:15:43;;;;;;;1999.90;999.90;;;6.40;99.90;;;;;;5072793;28;20398;-69
2021/03/01 09:18:09;;;;;;;1999.90;999.90;;;6.60;99.90;;;;;;5073022;28;20485;-69
2021/03/01 09:20:54;;;;;;;1999.90;999.90;;;6.70;99.90;;;;;;5072983;28;20841;-69
2021/03/01 09:23:42;;;;;;;1999.90;999.90;;;6.80;99.90;;;;;;5072946;28;20393;-67
2021/03/01 09:26:22;;;;;;;1999.90;999.90;;;6.90;99.90;;;;;;5072237;28;20498;-69
2021/03/01 09:28:49;;;;;;;1999.90;999.90;;;7.00;99.90;;;;;;5072866;28;20892;-68
2021/03/01 09:31:16;;;;;;;1999.90;999.90;;;7.20;99.90;;;;;;5072639;28;20410;-67
2021/03/01 09:33:43;;;;;;;1999.90;999.90;;;7.30;99.90;;;;;;5072571;28;20438;-67
2021/03/01 09:36:09;;;;;;;1999.90;999.90;;;7.30;99.90;;;;;;5072089;28;20822;-68
2021/03/01 09:38:36;;;;;;;1999.90;999.90;;;7.40;99.90;;;;;;5072127;28;20406;-67
2021/03/01 09:41:10;;;;;;;1999.90;999.90;;;7.60;99.90;;;;;;5071380;28;20406;-66
2021/03/01 09:43:37;;;;;;;1999.90;999.90;;;7.70;99.90;;;;;;5072081;28;20494;-67
2021/03/01 09:46:04;;;;;;;1999.90;999.90;;;8.00;99.90;;;;;;5072030;28;20396;-66
2021/03/01 09:48:37;;;;;;;1999.90;999.90;;;8.10;99.90;;;;;;5072447;28;21002;-68
2021/03/01 09:51:08;;;;;;;1999.90;999.90;;;8.20;99.90;;;;;;5072440;28;20428;-67
2021/03/01 09:53:35;;;;;;;1999.90;999.90;;;8.30;99.90;;;;;;5072140;28;20422;-66
2021/03/01 09:56:00;;;;;;;1999.90;999.90;;;8.40;99.90;;;;;;5071689;28;20920;-66
2021/03/01 09:58:40;;;;;;;1999.90;999.90;;;8.50;99.90;;;;;;5072086;28;20463;-66
2021/03/01 10:01:12;;;;;;;1999.90;999.90;;;8.60;99.90;;;;;;5072084;28;20246;-67
2021/03/01 10:03:43;;;;;;;1999.90;999.90;;;8.70;99.90;;;;;;5071919;28;20451;-67
2021/03/01 10:06:09;;;;;;;1999.90;999.90;;;8.80;99.90;;;;;;5071618;28;20449;-66
2021/03/01 10:08:36;;;;;;;1999.90;999.90;;;8.90;99.90;;;;;;5072068;28;20433;-66
2021/03/01 10:11:02;;;;;;;1999.90;999.90;;;8.90;99.90;;;;;;5071251;28;20433;-66
2021/03/01 10:13:33;;;;;;;1999.90;999.90;;;9.10;99.90;;;;;;5071848;28;20746;-66
2021/03/01 10:16:01;;;;;;;1999.90;999.90;;;9.10;99.90;;;;;;5071601;28;20395;-66
2021/03/01 10:18:31;;;;;;;1999.90;999.90;;;9.20;99.90;;;;;;5071817;28;20449;-66
2021/03/01 10:21:00;;;;;;;1999.90;999.90;;;9.30;99.90;;;;;;5071827;28;20411;-66
2021/03/01 10:23:32;;;;;;;1999.90;999.90;;;9.40;99.90;;;;;;5071724;28;20408;-66
2021/03/01 10:26:15;;;;;;;1999.90;999.90;;;9.60;99.90;;;;;;5071407;28;20495;-66
2021/03/01 10:28:46;;;;;;;1999.90;999.90;;;9.70;99.90;;;;;;5071866;28;20893;-66
2021/03/01 10:31:14;;;;;;;1999.90;999.90;;;9.80;99.90;;;;;;5071741;28;20422;-66
2021/03/01 10:33:57;;;;;;;1999.90;999.90;;;10.00;99.90;;;;;;5118122;22;20437;-68
2021/03/01 10:36:33;;;;;;;1999.90;999.90;;;10.20;99.90;;;;;;5050697;28;20427;-70
2021/03/01 10:39:26;;;;;;;1999.90;999.90;;;10.30;99.90;;;;;;5049000;28;20832;-70
2021/03/01 10:41:57;;;;;;;1999.90;999.90;;;10.40;99.90;;;;;;5052633;28;20408;-71
2021/03/01 10:44:32;;;;;;;1999.90;999.90;;;10.60;99.90;;;;;;5051364;28;20433;-67
2021/03/01 10:47:14;;;;;;;1999.90;999.90;;;10.80;99.90;;;;;;5053195;28;20438;-67
2021/03/01 10:49:40;;;;;;;1999.90;999.90;;;11.00;99.90;;;;;;5055969;28;20397;-68
2021/03/01 10:52:11;;;;;;;1999.90;999.90;;;11.00;99.90;;;;;;5055500;28;20404;-68
2021/03/01 10:54:37;;;;;;;1999.90;999.90;;;11.00;99.90;;;;;;5055727;28;20433;-66
2021/03/01 10:57:03;;;;;;;1999.90;999.90;;;11.10;99.90;;;;;;5051144;28;20485;-68
2021/03/01 10:59:29;;;;;;;1999.90;999.90;;;11.30;99.90;;;;;;5050961;28;20888;-70
2021/03/01 11:01:55;;;;;;;1999.90;999.90;;;11.50;99.90;;;;;;5050683;28;20446;-67
2021/03/01 11:04:21;;;;;;;1999.90;999.90;;;11.60;99.90;;;;;;5050726;28;20519;-67
2021/03/01 11:06:48;;;;;;;1999.90;999.90;;;11.70;99.90;;;;;;5051267;28;20418;-66
2021/03/01 11:09:13;;;;;;;1999.90;999.90;;;11.80;99.90;;;;;;5050684;28;20254;-68
2021/03/01 11:11:40;;;;;;;1999.90;999.90;;;12.00;99.90;;;;;;5050634;28;20584;-67
2021/03/01 11:14:07;;;;;;;1999.90;999.90;;;12.00;99.90;;;;;;5049832;28;20430;-68
2021/03/01 11:16:33;;;;;;;1999.90;999.90;;;12.10;99.90;;;;;;5050088;28;20416;-68
2021/03/01 11:18:59;;;;;;;1999.90;999.90;;;12.20;99.90;;;;;;5049971;28;20436;-70
2021/03/01 11:21:25;;;;;;;1999.90;999.90;;;12.40;99.90;;;;;;5055532;28;20177;-68
2021/03/01 11:23:51;;;;;;;1999.90;999.90;;;12.50;99.90;;;;;;5057701;28;20172;-67
2021/03/01 11:26:17;;;;;;;1999.90;999.90;;;12.60;99.90;;;;;;5059593;28;20211;-68
2021/03/01 11:28:43;;;;;;;1999.90;999.90;;;12.70;99.90;;;;;;5059799;28;20420;-70
2021/03/01 11:31:10;;;;;;;1999.90;999.90;;;12.80;99.90;;;;;;5059642;28;20210;-70
2021/03/01 11:33:36;;;;;;;1999.90;999.90;;;12.90;99.90;;;;;;5059372;28;20407;-69
2021/03/01 11:36:02;;;;;;;1999.90;999.90;;;13.00;99.90;;;;;;5058850;28;20421;-68
2021/03/01 11:38:28;;;;;;;1999.90;999.90;;;13.10;99.90;;;;;;5060955;28;20475;-68
2021/03/01 11:40:54;;;;;;;1999.90;999.90;;;13.20;99.90;;;;;;5060315;28;20417;-70
2021/03/01 11:43:21;;;;;;;1999.90;999.90;;;13.40;99.90;;;;;;5056279;28;20399;-68
2021/03/01 11:45:46;;;;;;;1999.90;999.90;;;13.70;99.90;;;;;;5054198;28;20325;-66
2021/03/01 11:48:13;;;;;;;1999.90;999.90;;;14.20;99.90;;;;;;5057707;28;20438;-69
2021/03/01 11:50:49;;;;;;;1999.90;999.90;;;15.00;99.90;;;;;;5060402;28;20158;-68
2021/03/01 11:53:16;;;;;;;1999.90;999.90;;;16.00;99.90;;;;;;5054778;28;20899;-69
2021/03/01 11:55:43;;;;;;;1999.90;999.90;;;17.00;99.90;;;;;;5053920;28;20436;-68
2021/03/01 11:58:09;;;;;;;1999.90;999.90;;;18.00;99.90;;;;;;5054729;28;20901;-67
2021/03/01 12:00:35;;;;;;;1999.90;999.90;;;19.00;99.90;;;;;;5054225;28;20442;-68
2021/03/01 12:03:02;;;;;;;1999.90;999.90;;;20.00;99.90;;;;;;5054439;28;20407;-69
2021/03/01 12:05:27;;;;;;;1999.90;999.90;;;20.90;99.90;;;;;;5054178;28;20529;-69
2021/03/01 12:07:53;;;;;;;1999.90;999.90;;;21.30;98.10;;;;;;5053869;28;20462;-69
2021/03/01 12:10:19;;;;;;;1999.90;999.90;;;21.70;93.50;;;;;;5054185;28;20260;-68
2021/03/01 12:12:44;;;;;;;1999.90;999.90;;;22.20;88.00;;;;;;5053748;28;20174;-68
2021/03/01 12:15:10;;;;;;;1999.90;999.90;;;22.40;83.20;;;;;;5053671;28;20197;-68